sensor_id;sensor_type;location;lat;lon;timestamp;pressure;altitude;pressure_sealevel;temperature;humidity
31062;BME280;17724;53.546;9.974;2023-02-24T00:03:44;101177.84;;;5.86;86.55
31062;BME280;17724;53.546;9.974;2023-02-24T00:07:45;101160.41;;;5.42;87.47
31062;BME280;17724;53.546;9.974;2023-02-24T00:11:57;101173.47;;;5.85;87.63
31062;BME280;17724;53.546;9.974;2023-02-24T00:16:00;101168.59;;;6.00;87.16
31062;BME280;17724;53.546;9.974;2023-02-24T00:20:02;101160.47;;;5.80;88.38
31062;BME280;17724;53.546;9.974;2023-02-24T00:24:05;101144.19;;;6.05;88.54
31062;BME280;17724;53.546;9.974;2023-02-24T00:28:06;101137.31;;;5.51;90.28
31062;BME280;17724;53.546;9.974;2023-02-24T00:32:09;101138.22;;;5.83;90.03
31062;BME280;17724;53.546;9.974;2023-02-24T00:36:16;101138.31;;;6.02;88.63
31062;BME280;17724;53.546;9.974;2023-02-24T00:40:23;101134.19;;;5.86;88.89
31062;BME280;17724;53.546;9.974;2023-02-24T00:44:24;101112.56;;;5.46;89.95
31062;BME280;17724;53.546;9.974;2023-02-24T00:48:25;101116.09;;;5.53;90.06
31062;BME280;17724;53.546;9.974;2023-02-24T00:52:27;101103.69;;;5.57;90.19
31062;BME280;17724;53.546;9.974;2023-02-24T00:56:29;101100.81;;;5.46;89.56
31062;BME280;17724;53.546;9.974;2023-02-24T01:00:30;101078.56;;;5.04;91.48
31062;BME280;17724;53.546;9.974;2023-02-24T01:04:35;101082.81;;;5.38;92.15
31062;BME280;17724;53.546;9.974;2023-02-24T01:08:38;101074.88;;;5.30;92.11
31062;BME280;17724;53.546;9.974;2023-02-24T01:12:39;101065.41;;;5.39;91.78
31062;BME280;17724;53.546;9.974;2023-02-24T01:16:48;101046.94;;;5.34;91.71
31062;BME280;17724;53.546;9.974;2023-02-24T01:20:50;101048.97;;;5.52;90.73
31062;BME280;17724;53.546;9.974;2023-02-24T01:24:51;101055.75;;;5.75;90.29
31062;BME280;17724;53.546;9.974;2023-02-24T01:28:55;101044.34;;;5.53;88.23
31062;BME280;17724;53.546;9.974;2023-02-24T01:32:57;101038.28;;;5.51;88.02
31062;BME280;17724;53.546;9.974;2023-02-24T01:36:57;101030.56;;;5.41;88.57
31062;BME280;17724;53.546;9.974;2023-02-24T01:40:58;101021.31;;;5.42;88.24
31062;BME280;17724;53.546;9.974;2023-02-24T01:45:12;101026.81;;;5.35;87.89
31062;BME280;17724;53.546;9.974;2023-02-24T01:49:23;101017.25;;;5.19;89.63
31062;BME280;17724;53.546;9.974;2023-02-24T01:53:29;101007.53;;;5.30;89.38
31062;BME280;17724;53.546;9.974;2023-02-24T01:57:32;101006.41;;;5.06;89.67
31062;BME280;17724;53.546;9.974;2023-02-24T02:01:35;100999.84;;;5.21;88.66
31062;BME280;17724;53.546;9.974;2023-02-24T02:05:40;100995.03;;;5.16;88.82
31062;BME280;17724;53.546;9.974;2023-02-24T02:09:43;100991.88;;;5.19;89.01
31062;BME280;17724;53.546;9.974;2023-02-24T02:13:45;100990.41;;;5.23;88.68
31062;BME280;17724;53.546;9.974;2023-02-24T02:26:49;100956.78;;;5.29;89.36
31062;BME280;17724;53.546;9.974;2023-02-24T02:39:24;100938.72;;;5.03;89.25
31062;BME280;17724;53.546;9.974;2023-02-24T02:43:50;100936.44;;;4.93;88.87
31062;BME280;17724;53.546;9.974;2023-02-24T02:48:11;100933.06;;;4.98;88.94
31062;BME280;17724;53.546;9.974;2023-02-24T02:52:22;100924.03;;;5.04;88.53
31062;BME280;17724;53.546;9.974;2023-02-24T02:56:31;100900.94;;;5.07;88.02
31062;BME280;17724;53.546;9.974;2023-02-24T03:00:38;100898.03;;;5.02;88.33
31062;BME280;17724;53.546;9.974;2023-02-24T03:04:45;100912.31;;;4.97;88.42
31062;BME280;17724;53.546;9.974;2023-02-24T03:08:56;100897.72;;;4.85;89.00
31062;BME280;17724;53.546;9.974;2023-02-24T03:13:01;100884.78;;;4.74;89.42
31062;BME280;17724;53.546;9.974;2023-02-24T03:17:08;100878.25;;;4.75;89.45
31062;BME280;17724;53.546;9.974;2023-02-24T03:21:49;100870.41;;;4.53;89.76
31062;BME280;17724;53.546;9.974;2023-02-24T03:25:53;100871.97;;;4.74;90.11
31062;BME280;17724;53.546;9.974;2023-02-24T03:30:06;100861.84;;;4.88;88.94
31062;BME280;17724;53.546;9.974;2023-02-24T03:34:14;100858.31;;;4.87;88.46
31062;BME280;17724;53.546;9.974;2023-02-24T03:38:18;100843.72;;;4.75;88.59
31062;BME280;17724;53.546;9.974;2023-02-24T03:42:24;100841.34;;;4.79;87.56
31062;BME280;17724;53.546;9.974;2023-02-24T03:46:29;100833.19;;;4.79;86.26
31062;BME280;17724;53.546;9.974;2023-02-24T03:50:30;100817.28;;;4.76;87.00
31062;BME280;17724;53.546;9.974;2023-02-24T03:59:24;100809.56;;;4.98;86.85
31062;BME280;17724;53.546;9.974;2023-02-24T04:03:54;100797.06;;;4.90;86.64
31062;BME280;17724;53.546;9.974;2023-02-24T04:08:08;100788.72;;;5.10;86.64
31062;BME280;17724;53.546;9.974;2023-02-24T04:20:37;100748.47;;;4.87;88.65
31062;BME280;17724;53.546;9.974;2023-02-24T04:24:41;100744.00;;;4.92;88.46
31062;BME280;17724;53.546;9.974;2023-02-24T04:28:44;100734.94;;;4.99;88.27
31062;BME280;17724;53.546;9.974;2023-02-24T04:32:48;100714.56;;;5.01;88.49
31062;BME280;17724;53.546;9.974;2023-02-24T04:36:49;100719.03;;;4.96;88.23
31062;BME280;17724;53.546;9.974;2023-02-24T04:40:50;100697.00;;;4.97;88.72
31062;BME280;17724;53.546;9.974;2023-02-24T04:44:51;100701.84;;;4.70;89.85
31062;BME280;17724;53.546;9.974;2023-02-24T04:48:52;100689.06;;;4.96;90.27
31062;BME280;17724;53.546;9.974;2023-02-24T04:52:55;100675.25;;;4.90;90.38
31062;BME280;17724;53.546;9.974;2023-02-24T04:56:57;100655.06;;;4.98;91.76
31062;BME280;17724;53.546;9.974;2023-02-24T05:00:58;100648.88;;;4.91;92.25
31062;BME280;17724;53.546;9.974;2023-02-24T05:04:59;100632.81;;;4.58;93.18
31062;BME280;17724;53.546;9.974;2023-02-24T05:09:01;100634.25;;;4.60;93.68
31062;BME280;17724;53.546;9.974;2023-02-24T05:13:25;100623.41;;;4.54;93.66
31062;BME280;17724;53.546;9.974;2023-02-24T05:17:27;100610.13;;;4.64;93.49
31062;BME280;17724;53.546;9.974;2023-02-24T05:21:28;100596.09;;;4.67;93.83
31062;BME280;17724;53.546;9.974;2023-02-24T05:25:37;100595.59;;;4.70;93.79
31062;BME280;17724;53.546;9.974;2023-02-24T05:29:38;100584.56;;;4.65;93.40
31062;BME280;17724;53.546;9.974;2023-02-24T05:33:43;100571.09;;;4.70;93.07
31062;BME280;17724;53.546;9.974;2023-02-24T05:37:44;100563.69;;;4.77;92.86
31062;BME280;17724;53.546;9.974;2023-02-24T05:41:47;100554.25;;;4.80;92.55
31062;BME280;17724;53.546;9.974;2023-02-24T05:45:47;100541.38;;;4.68;92.92
31062;BME280;17724;53.546;9.974;2023-02-24T05:49:48;100543.81;;;4.95;92.86
31062;BME280;17724;53.546;9.974;2023-02-24T05:53:52;100535.16;;;4.98;93.20
31062;BME280;17724;53.546;9.974;2023-02-24T05:57:55;100534.03;;;4.87;92.97
31062;BME280;17724;53.546;9.974;2023-02-24T06:01:58;100514.13;;;4.87;93.65
31062;BME280;17724;53.546;9.974;2023-02-24T06:06:00;100504.19;;;4.74;94.32
31062;BME280;17724;53.546;9.974;2023-02-24T06:10:05;100503.47;;;4.67;95.71
31062;BME280;17724;53.546;9.974;2023-02-24T06:14:11;100496.13;;;4.67;97.53
31062;BME280;17724;53.546;9.974;2023-02-24T06:18:12;100501.28;;;4.76;98.87
31062;BME280;17724;53.546;9.974;2023-02-24T06:22:13;100492.22;;;4.38;100.00
31062;BME280;17724;53.546;9.974;2023-02-24T06:26:14;100496.34;;;4.23;100.00
31062;BME280;17724;53.546;9.974;2023-02-24T06:30:19;100487.75;;;4.07;100.00
31062;BME280;17724;53.546;9.974;2023-02-24T06:34:21;100466.75;;;3.89;100.00
31062;BME280;17724;53.546;9.974;2023-02-24T06:38:21;100456.25;;;3.93;100.00
31062;BME280;17724;53.546;9.974;2023-02-24T06:42:22;100451.47;;;3.88;100.00
31062;BME280;17724;53.546;9.974;2023-02-24T06:46:22;100444.97;;;3.89;100.00
31062;BME280;17724;53.546;9.974;2023-02-24T06:50:22;100437.88;;;3.88;100.00
31062;BME280;17724;53.546;9.974;2023-02-24T06:54:24;100422.69;;;3.56;100.00
31062;BME280;17724;53.546;9.974;2023-02-24T06:58:27;100415.63;;;3.48;100.00
31062;BME280;17724;53.546;9.974;2023-02-24T07:02:28;100431.00;;;3.61;100.00
31062;BME280;17724;53.546;9.974;2023-02-24T07:06:34;100423.44;;;3.63;100.00
31062;BME280;17724;53.546;9.974;2023-02-24T07:10:35;100414.25;;;3.64;100.00
31062;BME280;17724;53.546;9.974;2023-02-24T07:14:36;100409.41;;;3.66;100.00
31062;BME280;17724;53.546;9.974;2023-02-24T07:18:37;100372.34;;;3.46;100.00
31062;BME280;17724;53.546;9.974;2023-02-24T07:22:42;100377.69;;;3.60;100.00
31062;BME280;17724;53.546;9.974;2023-02-24T07:26:43;100384.38;;;3.57;100.00
31062;BME280;17724;53.546;9.974;2023-02-24T07:30:50;100374.06;;;3.66;100.00
31062;BME280;17724;53.546;9.974;2023-02-24T07:34:54;100375.72;;;3.67;100.00
31062;BME280;17724;53.546;9.974;2023-02-24T07:38:56;100370.91;;;3.69;100.00
31062;BME280;17724;53.546;9.974;2023-02-24T07:42:58;100355.94;;;3.60;100.00
31062;BME280;17724;53.546;9.974;2023-02-24T07:46:58;100353.09;;;3.48;100.00
31062;BME280;17724;53.546;9.974;2023-02-24T07:50:59;100365.13;;;3.59;100.00
31062;BME280;17724;53.546;9.974;2023-02-24T07:55:00;100344.53;;;3.69;100.00
31062;BME280;17724;53.546;9.974;2023-02-24T07:59:03;100338.09;;;3.64;100.00
31062;BME280;17724;53.546;9.974;2023-02-24T08:03:07;100316.84;;;3.54;100.00
31062;BME280;17724;53.546;9.974;2023-02-24T08:07:08;100323.13;;;3.55;100.00
31062;BME280;17724;53.546;9.974;2023-02-24T08:11:13;100312.63;;;3.58;100.00
31062;BME280;17724;53.546;9.974;2023-02-24T08:15:14;100302.22;;;3.55;100.00
31062;BME280;17724;53.546;9.974;2023-02-24T08:19:22;100291.16;;;3.32;100.00
31062;BME280;17724;53.546;9.974;2023-02-24T08:23:23;100288.22;;;3.33;100.00
31062;BME280;17724;53.546;9.974;2023-02-24T08:27:27;100276.69;;;3.56;100.00
31062;BME280;17724;53.546;9.974;2023-02-24T08:31:31;100253.44;;;3.60;100.00
31062;BME280;17724;53.546;9.974;2023-02-24T08:35:34;100268.75;;;3.36;100.00
31062;BME280;17724;53.546;9.974;2023-02-24T08:39:35;100245.25;;;3.42;100.00
31062;BME280;17724;53.546;9.974;2023-02-24T08:43:39;100245.09;;;3.37;100.00
31062;BME280;17724;53.546;9.974;2023-02-24T08:47:40;100222.44;;;3.43;100.00
31062;BME280;17724;53.546;9.974;2023-02-24T08:51:46;100214.59;;;3.35;100.00
31062;BME280;17724;53.546;9.974;2023-02-24T08:55:48;100212.78;;;3.47;100.00
31062;BME280;17724;53.546;9.974;2023-02-24T08:59:52;100207.91;;;3.56;100.00
31062;BME280;17724;53.546;9.974;2023-02-24T09:03:58;100187.72;;;3.45;100.00
31062;BME280;17724;53.546;9.974;2023-02-24T09:07:58;100197.53;;;3.64;100.00
31062;BME280;17724;53.546;9.974;2023-02-24T09:11:59;100169.28;;;3.65;100.00
31062;BME280;17724;53.546;9.974;2023-02-24T09:16:01;100183.50;;;3.49;100.00
31062;BME280;17724;53.546;9.974;2023-02-24T09:20:03;100168.31;;;3.60;100.00
31062;BME280;17724;53.546;9.974;2023-02-24T09:24:35;100162.81;;;3.48;100.00
31062;BME280;17724;53.546;9.974;2023-02-24T09:28:35;100141.13;;;3.41;100.00
31062;BME280;17724;53.546;9.974;2023-02-24T09:32:47;100138.09;;;3.50;100.00
31062;BME280;17724;53.546;9.974;2023-02-24T09:36:48;100162.94;;;3.53;100.00
31062;BME280;17724;53.546;9.974;2023-02-24T09:41:02;100136.59;;;3.54;100.00
31062;BME280;17724;53.546;9.974;2023-02-24T09:45:15;100139.69;;;3.39;100.00
31062;BME280;17724;53.546;9.974;2023-02-24T09:49:45;100116.38;;;3.50;100.00
31062;BME280;17724;53.546;9.974;2023-02-24T09:53:48;100132.66;;;3.50;100.00
31062;BME280;17724;53.546;9.974;2023-02-24T10:02:42;100105.03;;;3.53;100.00
31062;BME280;17724;53.546;9.974;2023-02-24T10:06:53;100112.06;;;3.60;100.00
31062;BME280;17724;53.546;9.974;2023-02-24T10:10:56;100092.00;;;3.73;100.00
31062;BME280;17724;53.546;9.974;2023-02-24T10:15:13;100079.94;;;3.69;100.00
31062;BME280;17724;53.546;9.974;2023-02-24T10:19:26;100082.44;;;3.82;100.00
31062;BME280;17724;53.546;9.974;2023-02-24T10:27:43;100068.16;;;3.87;100.00
31062;BME280;17724;53.546;9.974;2023-02-24T10:32:06;100063.69;;;3.92;100.00
31062;BME280;17724;53.546;9.974;2023-02-24T10:36:21;100070.94;;;4.10;100.00
31062;BME280;17724;53.546;9.974;2023-02-24T10:40:47;100057.19;;;4.05;100.00
31062;BME280;17724;53.546;9.974;2023-02-24T10:49:13;100060.41;;;4.14;100.00
31062;BME280;17724;53.546;9.974;2023-02-24T10:53:17;100052.00;;;4.04;100.00
31062;BME280;17724;53.546;9.974;2023-02-24T10:57:43;100034.38;;;4.18;100.00
31062;BME280;17724;53.546;9.974;2023-02-24T11:02:00;100021.28;;;4.15;100.00
31062;BME280;17724;53.546;9.974;2023-02-24T11:06:18;100019.47;;;4.20;100.00
31062;BME280;17724;53.546;9.974;2023-02-24T11:10:39;100019.38;;;4.39;100.00
31062;BME280;17724;53.546;9.974;2023-02-24T11:15:04;100006.69;;;4.56;100.00
31062;BME280;17724;53.546;9.974;2023-02-24T11:19:28;99988.81;;;4.72;100.00
31062;BME280;17724;53.546;9.974;2023-02-24T11:23:43;99988.19;;;4.70;100.00
31062;BME280;17724;53.546;9.974;2023-02-24T11:27:44;99975.31;;;4.65;100.00
31062;BME280;17724;53.546;9.974;2023-02-24T11:36:22;99945.34;;;4.65;100.00
31062;BME280;17724;53.546;9.974;2023-02-24T11:40:35;99941.69;;;4.72;100.00
31062;BME280;17724;53.546;9.974;2023-02-24T11:44:44;99940.56;;;4.84;100.00
31062;BME280;17724;53.546;9.974;2023-02-24T11:48:48;99927.19;;;4.83;100.00
31062;BME280;17724;53.546;9.974;2023-02-24T11:52:53;99927.50;;;4.86;100.00
31062;BME280;17724;53.546;9.974;2023-02-24T11:56:56;99926.25;;;4.77;100.00
31062;BME280;17724;53.546;9.974;2023-02-24T12:01:09;99885.00;;;4.85;100.00
31062;BME280;17724;53.546;9.974;2023-02-24T12:05:15;99899.06;;;4.94;100.00
31062;BME280;17724;53.546;9.974;2023-02-24T12:09:20;99890.69;;;5.12;100.00
31062;BME280;17724;53.546;9.974;2023-02-24T12:17:35;99865.28;;;5.40;100.00
31062;BME280;17724;53.546;9.974;2023-02-24T12:21:41;99855.06;;;5.48;100.00
31062;BME280;17724;53.546;9.974;2023-02-24T12:39:19;99856.34;;;5.62;100.00
31062;BME280;17724;53.546;9.974;2023-02-24T12:43:49;99850.09;;;5.44;100.00
31062;BME280;17724;53.546;9.974;2023-02-24T12:48:10;99848.66;;;5.42;100.00
31062;BME280;17724;53.546;9.974;2023-02-24T12:56:22;99833.47;;;5.63;100.00
31062;BME280;17724;53.546;9.974;2023-02-24T13:00:29;99835.06;;;5.59;100.00
31062;BME280;17724;53.546;9.974;2023-02-24T13:13:18;99800.97;;;5.95;100.00
31062;BME280;17724;53.546;9.974;2023-02-24T13:17:24;99799.13;;;6.23;100.00
31062;BME280;17724;53.546;9.974;2023-02-24T13:21:26;99775.66;;;6.49;100.00
31062;BME280;17724;53.546;9.974;2023-02-24T13:25:32;99779.53;;;6.53;100.00
31062;BME280;17724;53.546;9.974;2023-02-24T13:42:32;99744.00;;;6.26;100.00
31062;BME280;17724;53.546;9.974;2023-02-24T14:03:30;99735.38;;;6.93;100.00
31062;BME280;17724;53.546;9.974;2023-02-24T14:07:35;99724.41;;;6.88;100.00
31062;BME280;17724;53.546;9.974;2023-02-24T14:11:36;99719.13;;;6.76;100.00
31062;BME280;17724;53.546;9.974;2023-02-24T14:15:40;99711.84;;;6.87;100.00
31062;BME280;17724;53.546;9.974;2023-02-24T14:19:42;99706.44;;;6.97;100.00
31062;BME280;17724;53.546;9.974;2023-02-24T14:23:42;99709.41;;;6.90;100.00
31062;BME280;17724;53.546;9.974;2023-02-24T14:27:45;99685.22;;;6.77;100.00
31062;BME280;17724;53.546;9.974;2023-02-24T14:31:48;99699.31;;;6.91;100.00
31062;BME280;17724;53.546;9.974;2023-02-24T14:35:50;99696.56;;;6.91;100.00
31062;BME280;17724;53.546;9.974;2023-02-24T14:39:58;99695.03;;;7.05;100.00
31062;BME280;17724;53.546;9.974;2023-02-24T14:44:07;99694.28;;;7.15;100.00
31062;BME280;17724;53.546;9.974;2023-02-24T14:48:21;99690.47;;;7.16;100.00
31062;BME280;17724;53.546;9.974;2023-02-24T14:52:44;99679.09;;;7.34;100.00
31062;BME280;17724;53.546;9.974;2023-02-24T14:56:48;99657.78;;;7.41;100.00
31062;BME280;17724;53.546;9.974;2023-02-24T15:01:15;99661.94;;;7.49;100.00
31062;BME280;17724;53.546;9.974;2023-02-24T15:05:19;99658.88;;;7.40;100.00
31062;BME280;17724;53.546;9.974;2023-02-24T15:09:40;99657.94;;;7.14;100.00
31062;BME280;17724;53.546;9.974;2023-02-24T15:13:48;99664.06;;;7.37;100.00
31062;BME280;17724;53.546;9.974;2023-02-24T15:17:58;99670.34;;;7.37;100.00
31062;BME280;17724;53.546;9.974;2023-02-24T15:22:03;99673.69;;;7.45;100.00
31062;BME280;17724;53.546;9.974;2023-02-24T15:26:33;99662.50;;;7.46;100.00
31062;BME280;17724;53.546;9.974;2023-02-24T15:30:37;99659.91;;;7.29;100.00
31062;BME280;17724;53.546;9.974;2023-02-24T15:34:38;99654.22;;;7.36;100.00
31062;BME280;17724;53.546;9.974;2023-02-24T15:38:40;99652.16;;;7.63;100.00
31062;BME280;17724;53.546;9.974;2023-02-24T15:42:49;99634.34;;;7.61;100.00
31062;BME280;17724;53.546;9.974;2023-02-24T15:46:50;99639.03;;;7.65;100.00
31062;BME280;17724;53.546;9.974;2023-02-24T15:50:51;99628.34;;;7.64;100.00
31062;BME280;17724;53.546;9.974;2023-02-24T15:54:54;99628.94;;;7.66;100.00
31062;BME280;17724;53.546;9.974;2023-02-24T15:58:55;99627.56;;;7.74;100.00
31062;BME280;17724;53.546;9.974;2023-02-24T16:02:58;99622.66;;;7.81;100.00
31062;BME280;17724;53.546;9.974;2023-02-24T16:07:05;99614.69;;;7.69;100.00
31062;BME280;17724;53.546;9.974;2023-02-24T16:11:10;99609.25;;;7.74;100.00
31062;BME280;17724;53.546;9.974;2023-02-24T16:15:18;99615.78;;;7.68;100.00
31062;BME280;17724;53.546;9.974;2023-02-24T16:19:19;99620.38;;;7.52;100.00
31062;BME280;17724;53.546;9.974;2023-02-24T16:23:21;99631.00;;;7.44;100.00
31062;BME280;17724;53.546;9.974;2023-02-24T16:27:22;99617.09;;;7.55;100.00
31062;BME280;17724;53.546;9.974;2023-02-24T16:31:24;99626.44;;;7.59;100.00
31062;BME280;17724;53.546;9.974;2023-02-24T16:35:26;99632.59;;;7.34;100.00
31062;BME280;17724;53.546;9.974;2023-02-24T16:39:27;99603.97;;;7.52;100.00
31062;BME280;17724;53.546;9.974;2023-02-24T16:43:28;99616.94;;;7.25;100.00
31062;BME280;17724;53.546;9.974;2023-02-24T16:47:31;99620.81;;;7.29;100.00
31062;BME280;17724;53.546;9.974;2023-02-24T16:51:33;99621.38;;;7.36;100.00
31062;BME280;17724;53.546;9.974;2023-02-24T16:55:34;99622.19;;;7.31;100.00
31062;BME280;17724;53.546;9.974;2023-02-24T16:59:35;99621.69;;;7.39;100.00
31062;BME280;17724;53.546;9.974;2023-02-24T17:03:44;99633.13;;;7.31;100.00
31062;BME280;17724;53.546;9.974;2023-02-24T17:07:46;99627.69;;;7.41;100.00
31062;BME280;17724;53.546;9.974;2023-02-24T17:11:47;99623.41;;;7.56;100.00
31062;BME280;17724;53.546;9.974;2023-02-24T17:15:51;99643.97;;;7.74;100.00
31062;BME280;17724;53.546;9.974;2023-02-24T17:19:56;99643.66;;;7.65;100.00
31062;BME280;17724;53.546;9.974;2023-02-24T17:23:56;99636.28;;;7.65;100.00
31062;BME280;17724;53.546;9.974;2023-02-24T17:28:00;99637.69;;;7.68;100.00
31062;BME280;17724;53.546;9.974;2023-02-24T17:32:00;99641.41;;;7.47;100.00
31062;BME280;17724;53.546;9.974;2023-02-24T17:36:01;99633.69;;;7.33;100.00
31062;BME280;17724;53.546;9.974;2023-02-24T17:40:03;99637.69;;;7.15;100.00
31062;BME280;17724;53.546;9.974;2023-02-24T17:44:04;99637.38;;;7.07;100.00
31062;BME280;17724;53.546;9.974;2023-02-24T17:48:04;99639.28;;;7.06;100.00
31062;BME280;17724;53.546;9.974;2023-02-24T17:52:05;99625.16;;;7.25;100.00
31062;BME280;17724;53.546;9.974;2023-02-24T17:56:06;99635.06;;;7.36;100.00
31062;BME280;17724;53.546;9.974;2023-02-24T18:00:08;99635.50;;;7.18;100.00
31062;BME280;17724;53.546;9.974;2023-02-24T18:04:14;99632.88;;;6.90;100.00
31062;BME280;17724;53.546;9.974;2023-02-24T18:08:15;99638.69;;;6.99;100.00
31062;BME280;17724;53.546;9.974;2023-02-24T18:12:16;99630.19;;;6.96;100.00
31062;BME280;17724;53.546;9.974;2023-02-24T18:16:17;99616.97;;;6.82;100.00
31062;BME280;17724;53.546;9.974;2023-02-24T18:20:18;99637.38;;;7.07;100.00
31062;BME280;17724;53.546;9.974;2023-02-24T18:24:19;99634.09;;;7.10;100.00
31062;BME280;17724;53.546;9.974;2023-02-24T18:28:21;99640.03;;;7.02;100.00
31062;BME280;17724;53.546;9.974;2023-02-24T18:32:22;99615.06;;;6.83;100.00
31062;BME280;17724;53.546;9.974;2023-02-24T18:36:23;99638.56;;;6.47;100.00
31062;BME280;17724;53.546;9.974;2023-02-24T18:40:25;99633.13;;;6.52;100.00
31062;BME280;17724;53.546;9.974;2023-02-24T18:44:26;99625.09;;;6.40;100.00
31062;BME280;17724;53.546;9.974;2023-02-24T18:48:28;99635.56;;;6.48;100.00
31062;BME280;17724;53.546;9.974;2023-02-24T18:52:28;99635.88;;;6.57;100.00
31062;BME280;17724;53.546;9.974;2023-02-24T18:56:31;99642.09;;;6.47;100.00
31062;BME280;17724;53.546;9.974;2023-02-24T19:00:33;99649.56;;;6.57;100.00
31062;BME280;17724;53.546;9.974;2023-02-24T19:04:33;99640.41;;;6.41;100.00
31062;BME280;17724;53.546;9.974;2023-02-24T19:08:34;99645.56;;;6.70;100.00
31062;BME280;17724;53.546;9.974;2023-02-24T19:12:35;99632.72;;;6.70;100.00
31062;BME280;17724;53.546;9.974;2023-02-24T19:16:35;99638.63;;;6.57;100.00
31062;BME280;17724;53.546;9.974;2023-02-24T19:20:40;99629.22;;;6.43;100.00
31062;BME280;17724;53.546;9.974;2023-02-24T19:24:42;99615.94;;;6.56;100.00
31062;BME280;17724;53.546;9.974;2023-02-24T19:28:42;99634.06;;;6.68;100.00
31062;BME280;17724;53.546;9.974;2023-02-24T19:32:43;99632.44;;;6.66;100.00
31062;BME280;17724;53.546;9.974;2023-02-24T19:36:43;99635.25;;;6.82;100.00
31062;BME280;17724;53.546;9.974;2023-02-24T19:40:44;99622.06;;;6.69;100.00
31062;BME280;17724;53.546;9.974;2023-02-24T19:44:45;99638.56;;;6.84;100.00
31062;BME280;17724;53.546;9.974;2023-02-24T19:48:46;99618.50;;;6.68;100.00
31062;BME280;17724;53.546;9.974;2023-02-24T19:52:47;99634.75;;;6.85;100.00
31062;BME280;17724;53.546;9.974;2023-02-24T19:56:48;99638.00;;;6.82;100.00
31062;BME280;17724;53.546;9.974;2023-02-24T20:00:49;99639.06;;;6.76;100.00
31062;BME280;17724;53.546;9.974;2023-02-24T20:04:50;99634.91;;;6.68;100.00
31062;BME280;17724;53.546;9.974;2023-02-24T20:08:50;99630.56;;;6.72;100.00
31062;BME280;17724;53.546;9.974;2023-02-24T20:12:53;99650.59;;;6.83;100.00
31062;BME280;17724;53.546;9.974;2023-02-24T20:16:54;99640.69;;;6.77;100.00
31062;BME280;17724;53.546;9.974;2023-02-24T20:20:58;99641.88;;;6.54;100.00
31062;BME280;17724;53.546;9.974;2023-02-24T20:24:59;99648.47;;;6.58;100.00
31062;BME280;17724;53.546;9.974;2023-02-24T20:28:59;99651.81;;;6.65;100.00
31062;BME280;17724;53.546;9.974;2023-02-24T20:33:00;99655.94;;;6.68;100.00
31062;BME280;17724;53.546;9.974;2023-02-24T20:37:00;99652.69;;;6.71;100.00
31062;BME280;17724;53.546;9.974;2023-02-24T20:41:01;99646.91;;;6.67;100.00
31062;BME280;17724;53.546;9.974;2023-02-24T20:45:02;99648.22;;;6.59;100.00
31062;BME280;17724;53.546;9.974;2023-02-24T20:49:05;99616.88;;;6.35;100.00
31062;BME280;17724;53.546;9.974;2023-02-24T20:53:07;99644.06;;;6.25;100.00
31062;BME280;17724;53.546;9.974;2023-02-24T20:57:07;99632.97;;;6.36;100.00
31062;BME280;17724;53.546;9.974;2023-02-24T21:01:10;99636.75;;;6.30;100.00
31062;BME280;17724;53.546;9.974;2023-02-24T21:05:19;99653.97;;;6.04;100.00
31062;BME280;17724;53.546;9.974;2023-02-24T21:09:20;99650.44;;;5.86;100.00
31062;BME280;17724;53.546;9.974;2023-02-24T21:13:20;99651.03;;;5.88;100.00
31062;BME280;17724;53.546;9.974;2023-02-24T21:17:21;99650.34;;;6.52;100.00
31062;BME280;17724;53.546;9.974;2023-02-24T21:21:22;99666.91;;;6.46;100.00
31062;BME280;17724;53.546;9.974;2023-02-24T21:25:22;99664.94;;;6.36;100.00
31062;BME280;17724;53.546;9.974;2023-02-24T21:29:23;99673.47;;;6.45;100.00
31062;BME280;17724;53.546;9.974;2023-02-24T21:33:24;99669.16;;;6.81;100.00
31062;BME280;17724;53.546;9.974;2023-02-24T21:37:24;99683.41;;;6.88;100.00
31062;BME280;17724;53.546;9.974;2023-02-24T21:41:25;99692.47;;;6.61;100.00
31062;BME280;17724;53.546;9.974;2023-02-24T21:45:25;99694.34;;;6.29;100.00
31062;BME280;17724;53.546;9.974;2023-02-24T21:49:27;99696.75;;;6.52;100.00
31062;BME280;17724;53.546;9.974;2023-02-24T21:53:28;99714.59;;;6.33;98.54
31062;BME280;17724;53.546;9.974;2023-02-24T21:57:29;99724.09;;;6.03;96.96
31062;BME280;17724;53.546;9.974;2023-02-24T22:01:32;99723.28;;;6.03;95.64
31062;BME280;17724;53.546;9.974;2023-02-24T22:05:33;99726.00;;;6.03;94.56
31062;BME280;17724;53.546;9.974;2023-02-24T22:09:34;99737.47;;;5.83;92.38
31062;BME280;17724;53.546;9.974;2023-02-24T22:13:34;99742.59;;;5.79;92.15
31062;BME280;17724;53.546;9.974;2023-02-24T22:17:36;99754.59;;;5.61;90.72
31062;BME280;17724;53.546;9.974;2023-02-24T22:21:37;99762.19;;;5.76;90.80
31062;BME280;17724;53.546;9.974;2023-02-24T22:25:40;99750.78;;;5.79;92.24
31062;BME280;17724;53.546;9.974;2023-02-24T22:29:41;99748.28;;;5.95;93.43
31062;BME280;17724;53.546;9.974;2023-02-24T22:33:42;99755.44;;;6.01;91.13
31062;BME280;17724;53.546;9.974;2023-02-24T22:37:43;99766.25;;;5.74;89.45
31062;BME280;17724;53.546;9.974;2023-02-24T22:41:44;99763.63;;;5.62;89.13
31062;BME280;17724;53.546;9.974;2023-02-24T22:45:55;99767.44;;;5.61;89.24
31062;BME280;17724;53.546;9.974;2023-02-24T22:49:58;99774.56;;;5.84;90.28
31062;BME280;17724;53.546;9.974;2023-02-24T22:53:58;99772.72;;;5.67;90.55
31062;BME280;17724;53.546;9.974;2023-02-24T22:57:59;99764.38;;;5.57;90.72
31062;BME280;17724;53.546;9.974;2023-02-24T23:01:59;99764.66;;;5.39;90.18
31062;BME280;17724;53.546;9.974;2023-02-24T23:06:02;99762.25;;;5.42;90.71
31062;BME280;17724;53.546;9.974;2023-02-24T23:10:03;99783.75;;;5.39;91.29
31062;BME280;17724;53.546;9.974;2023-02-24T23:14:07;99783.72;;;5.22;91.55
31062;BME280;17724;53.546;9.974;2023-02-24T23:18:09;99787.03;;;5.41;91.29
31062;BME280;17724;53.546;9.974;2023-02-24T23:22:09;99799.03;;;5.23;90.60